Time;durP1;ratioP1;P1;durP2;ratioP2;P2;SDS_P1;SDS_P2;PMS_P1;PMS_P2;Temp;Humidity;BMP_temperature;BMP_pressure;BME280_temperature;BME280_humidity;BME280_pressure;Samples;Min_cycle;Max_cycle;Signal;HPM_P1;HPM_P2
2021/01/09 00:00:28;;;;;;;0.20;0.20;;;2.00;99.90;;;;;;4842464;29;20251;-91
2021/01/09 00:02:54;;;;;;;1.23;1.13;;;2.00;99.90;;;;;;4840460;29;20793;-93
2021/01/09 00:05:20;;;;;;;12.83;1.30;;;2.00;99.90;;;;;;4843971;29;20189;-90
2021/01/09 00:07:46;;;;;;;15.57;0.50;;;1.90;99.90;;;;;;4841440;29;20776;-91
2021/01/09 00:10:11;;;;;;;0.20;0.20;;;1.90;99.90;;;;;;4827029;29;20617;-90
2021/01/09 00:12:39;;;;;;;0.87;0.87;;;1.70;99.90;;;;;;4840982;29;20328;-91
2021/01/09 00:15:26;;;;;;;0.30;0.30;;;1.70;99.90;;;;;;4841719;29;20219;-91
2021/01/09 00:17:52;;;;;;;1.90;0.77;;;1.60;99.90;;;;;;4840831;29;20667;-92
2021/01/09 00:20:17;;;;;;;0.20;0.20;;;1.50;99.90;;;;;;4826745;29;20276;-90
2021/01/09 00:22:43;;;;;;;0.30;0.30;;;1.60;99.90;;;;;;4838406;29;20292;-90
2021/01/09 00:25:11;;;;;;;0.20;0.20;;;1.60;99.90;;;;;;4853785;29;20216;-92
2021/01/09 00:27:37;;;;;;;19.33;0.63;;;1.50;99.90;;;;;;4836963;29;20312;-91
2021/01/09 00:30:07;;;;;;;0.40;0.40;;;1.50;99.90;;;;;;4822868;29;20332;-90
2021/01/09 00:32:35;;;;;;;0.10;0.10;;;1.50;99.90;;;;;;4857677;29;20243;-91
2021/01/09 00:35:01;;;;;;;0.20;0.20;;;1.50;99.90;;;;;;4858347;29;20895;-91
2021/01/09 00:37:28;;;;;;;0.10;0.10;;;1.50;99.90;;;;;;4822477;29;20691;-90
2021/01/09 00:39:54;;;;;;;1.20;0.33;;;1.50;99.90;;;;;;4839189;29;20228;-91
2021/01/09 00:42:20;;;;;;;0.20;0.20;;;1.60;99.90;;;;;;4855510;29;20287;-94
2021/01/09 00:44:45;;;;;;;0.20;0.20;;;1.50;99.90;;;;;;4842899;29;20196;-90
2021/01/09 00:47:11;;;;;;;0.20;0.20;;;1.50;99.90;;;;;;4828123;29;20202;-91
2021/01/09 00:49:37;;;;;;;0.10;0.10;;;1.60;99.90;;;;;;4814441;29;20265;-90
2021/01/09 00:52:03;;;;;;;0.67;0.43;;;1.70;99.90;;;;;;4841873;29;20229;-90
2021/01/09 00:54:29;;;;;;;0.30;0.30;;;1.80;99.90;;;;;;4827486;29;20251;-91
2021/01/09 00:56:55;;;;;;;0.10;0.10;;;1.80;99.90;;;;;;4828592;29;20200;-90
2021/01/09 00:59:23;;;;;;;1.30;1.20;;;2.20;99.90;;;;;;4832892;29;20328;-92
2021/01/09 01:01:49;;;;;;;0.10;0.10;;;2.40;99.90;;;;;;4843986;29;20324;-92
2021/01/09 01:04:15;;;;;;;0.30;0.30;;;2.30;99.90;;;;;;4859105;29;20259;-93
2021/01/09 01:06:41;;;;;;;0.10;0.10;;;2.40;99.90;;;;;;4822095;29;20314;-92
2021/01/09 01:09:07;;;;;;;0.27;0.27;;;2.30;99.90;;;;;;4843555;29;20264;-91
2021/01/09 01:11:33;;;;;;;2.07;1.87;;;2.30;99.90;;;;;;4845082;29;20201;-91
2021/01/09 01:13:59;;;;;;;0.83;0.67;;;2.30;99.90;;;;;;4827422;29;20231;-92
2021/01/09 01:16:25;;;;;;;2.00;0.37;;;2.30;99.90;;;;;;4859662;29;20220;-92
2021/01/09 01:18:51;;;;;;;0.97;0.97;;;2.40;99.90;;;;;;4861501;29;20571;-91
2021/01/09 01:21:18;;;;;;;0.20;0.20;;;2.50;99.90;;;;;;4860103;29;20229;-92
2021/01/09 01:23:44;;;;;;;0.20;0.20;;;2.50;99.90;;;;;;4841008;29;20196;-90
2021/01/09 01:26:11;;;;;;;0.40;0.40;;;2.50;99.90;;;;;;4861411;29;20241;-91
2021/01/09 01:28:38;;;;;;;0.30;0.30;;;2.50;99.90;;;;;;4842381;29;20242;-94
2021/01/09 01:31:04;;;;;;;0.20;0.20;;;2.50;99.90;;;;;;4842341;29;20227;-93
2021/01/09 01:33:31;;;;;;;0.20;0.20;;;2.50;99.90;;;;;;4859070;29;20223;-92
2021/01/09 01:35:57;;;;;;;0.20;0.20;;;2.50;99.90;;;;;;4844809;29;20236;-92
2021/01/09 01:38:23;;;;;;;0.20;0.20;;;2.50;99.90;;;;;;4828785;29;20212;-91
2021/01/09 01:40:49;;;;;;;0.30;0.30;;;2.40;99.90;;;;;;4843706;29;20256;-92
2021/01/09 01:43:15;;;;;;;0.50;0.50;;;2.40;99.90;;;;;;4858741;29;20773;-93
2021/01/09 01:45:43;;;;;;;6.10;1.80;;;2.30;99.90;;;;;;4843570;29;20225;-92
2021/01/09 01:48:10;;;;;;;1.30;1.30;;;2.40;99.90;;;;;;4825679;29;20235;-91
2021/01/09 01:50:38;;;;;;;0.10;0.10;;;2.50;99.90;;;;;;4841437;29;20211;-89
2021/01/09 01:53:06;;;;;;;1.00;1.00;;;2.60;99.90;;;;;;4858478;29;20209;-92
2021/01/09 01:55:32;;;;;;;0.20;0.20;;;2.60;99.90;;;;;;4844051;29;20227;-90
2021/01/09 01:57:58;;;;;;;1.93;0.37;;;2.60;99.90;;;;;;4845108;29;20220;-90
2021/01/09 02:00:27;;;;;;;0.10;0.10;;;2.50;99.90;;;;;;4860613;29;21285;-91
2021/01/09 02:02:58;;;;;;;2.00;1.90;;;2.40;99.90;;;;;;4841307;29;20199;-91
2021/01/09 02:05:27;;;;;;;0.53;0.53;;;2.30;99.90;;;;;;4831390;29;20276;-93
2021/01/09 02:08:02;;;;;;;0.63;0.63;;;2.20;99.90;;;;;;4827790;29;20249;-91
2021/01/09 02:10:28;;;;;;;0.47;0.47;;;2.20;99.90;;;;;;4842280;29;20232;-91
2021/01/09 02:13:14;;;;;;;0.30;0.30;;;2.20;99.90;;;;;;4827566;29;20221;-90
2021/01/09 02:15:41;;;;;;;0.87;0.87;;;2.30;99.90;;;;;;4860141;29;20248;-92
2021/01/09 02:18:07;;;;;;;0.10;0.10;;;2.40;99.90;;;;;;4827209;29;20236;-90
2021/01/09 02:20:35;;;;;;;0.20;0.20;;;2.50;99.90;;;;;;4828589;29;20279;-91
2021/01/09 02:23:02;;;;;;;0.20;0.20;;;2.60;99.90;;;;;;4844323;29;20379;-92
2021/01/09 02:25:28;;;;;;;0.20;0.20;;;2.60;99.90;;;;;;4827100;29;20645;-93
2021/01/09 02:27:54;;;;;;;0.10;0.10;;;2.60;99.90;;;;;;4829304;29;20224;-93
2021/01/09 02:30:28;;;;;;;0.10;0.10;;;2.90;99.90;;;;;;4811802;29;20710;-93
2021/01/09 02:33:07;;;;;;;0.10;0.10;;;2.90;99.90;;;;;;4859119;29;20196;-92
2021/01/09 02:35:37;;;;;;;0.20;0.20;;;3.00;99.90;;;;;;4843173;29;20200;-91
2021/01/09 02:38:04;;;;;;;0.10;0.10;;;3.00;99.90;;;;;;4843962;29;20303;-92
2021/01/09 02:40:30;;;;;;;0.20;0.20;;;2.90;99.90;;;;;;4841104;29;20248;-92
2021/01/09 02:42:55;;;;;;;0.20;0.20;;;2.90;99.90;;;;;;4858774;29;20626;-92
2021/01/09 02:45:21;;;;;;;9.73;0.60;;;3.00;99.90;;;;;;4839767;29;20225;-93
2021/01/09 02:47:47;;;;;;;0.40;0.40;;;3.10;99.90;;;;;;4826136;29;21414;-92
2021/01/09 02:50:13;;;;;;;3.20;0.40;;;3.20;99.90;;;;;;4845717;29;20206;-90
2021/01/09 02:52:42;;;;;;;0.20;0.20;;;3.20;99.90;;;;;;4826499;29;20228;-90
2021/01/09 02:55:08;;;;;;;0.20;0.20;;;3.20;99.90;;;;;;4839592;29;20227;-91
2021/01/09 02:57:35;;;;;;;0.20;0.20;;;3.20;99.90;;;;;;4841617;29;20747;-91
2021/01/09 03:00:01;;;;;;;0.10;0.10;;;3.20;99.90;;;;;;4841980;29;20220;-91
2021/01/09 03:02:26;;;;;;;0.20;0.20;;;3.30;99.90;;;;;;4826532;29;20231;-92
2021/01/09 03:04:52;;;;;;;2.23;0.50;;;3.30;99.90;;;;;;4825207;29;20231;-90
2021/01/09 03:07:18;;;;;;;0.10;0.10;;;3.30;99.90;;;;;;4828066;29;20224;-90
2021/01/09 03:09:44;;;;;;;0.43;0.43;;;3.30;99.90;;;;;;4826064;29;20212;-91
2021/01/09 03:12:10;;;;;;;0.20;0.20;;;3.40;99.90;;;;;;4825600;29;20227;-90
2021/01/09 03:14:35;;;;;;;0.20;0.20;;;3.40;99.90;;;;;;4857967;29;20717;-87
2021/01/09 03:17:01;;;;;;;0.40;0.40;;;3.40;99.90;;;;;;4827852;29;20251;-90
2021/01/09 03:19:27;;;;;;;0.20;0.20;;;3.40;99.90;;;;;;4812201;29;20220;-90
2021/01/09 03:21:54;;;;;;;0.30;0.30;;;3.40;99.90;;;;;;4826862;29;20329;-90
2021/01/09 03:24:20;;;;;;;0.10;0.10;;;3.50;99.90;;;;;;4826201;29;20279;-90
2021/01/09 03:26:46;;;;;;;0.40;0.40;;;3.40;99.90;;;;;;4841128;29;20200;-90
2021/01/09 03:29:12;;;;;;;0.20;0.20;;;3.40;99.90;;;;;;4843898;29;20229;-90
2021/01/09 03:31:38;;;;;;;0.43;0.43;;;3.30;99.90;;;;;;4844099;29;20793;-91
2021/01/09 03:34:03;;;;;;;0.40;0.37;;;3.40;99.90;;;;;;4827095;29;20770;-91
2021/01/09 03:36:29;;;;;;;0.20;0.20;;;3.40;99.90;;;;;;4827130;29;20227;-90
2021/01/09 03:38:55;;;;;;;0.43;0.33;;;3.40;99.90;;;;;;4841057;29;20294;-91
2021/01/09 03:41:20;;;;;;;0.40;0.40;;;3.40;99.90;;;;;;4827449;29;20227;-91
2021/01/09 03:43:46;;;;;;;0.87;0.87;;;3.40;99.90;;;;;;4811995;29;20220;-91
2021/01/09 03:46:12;;;;;;;6.70;0.50;;;3.30;99.90;;;;;;4843127;29;20267;-90
2021/01/09 03:48:38;;;;;;;0.30;0.30;;;3.30;99.90;;;;;;4824275;29;20358;-90
2021/01/09 03:51:03;;;;;;;0.10;0.10;;;3.30;99.90;;;;;;4842651;29;20651;-92
2021/01/09 03:53:29;;;;;;;0.30;0.30;;;3.30;99.90;;;;;;4842753;29;20196;-92
2021/01/09 03:55:55;;;;;;;0.87;0.40;;;3.20;99.90;;;;;;4825199;29;20632;-90
2021/01/09 03:58:21;;;;;;;0.43;0.43;;;3.20;99.90;;;;;;4843156;29;20235;-91
2021/01/09 04:00:46;;;;;;;0.43;0.43;;;3.00;99.90;;;;;;4842439;29;20224;-91
2021/01/09 04:03:12;;;;;;;0.20;0.20;;;2.90;99.90;;;;;;4811021;29;20697;-92
2021/01/09 04:05:38;;;;;;;0.53;0.53;;;2.90;99.90;;;;;;4844329;29;20655;-90
2021/01/09 04:08:05;;;;;;;0.70;0.70;;;3.00;99.90;;;;;;4831130;29;20228;-91
2021/01/09 04:10:31;;;;;;;1.90;0.40;;;3.00;99.90;;;;;;4843114;29;20769;-90
2021/01/09 04:12:57;;;;;;;0.27;0.27;;;3.10;99.90;;;;;;4859936;29;20314;-91
2021/01/09 04:15:23;;;;;;;0.20;0.20;;;3.10;99.90;;;;;;4844612;29;20229;-91
2021/01/09 04:17:48;;;;;;;0.30;0.30;;;3.00;99.90;;;;;;4843774;29;20271;-90
2021/01/09 04:20:14;;;;;;;0.30;0.30;;;3.00;99.90;;;;;;4847065;29;20268;-91
2021/01/09 04:22:40;;;;;;;0.47;0.47;;;3.10;99.90;;;;;;4813635;29;20225;-90
2021/01/09 04:25:06;;;;;;;0.23;0.23;;;3.20;99.90;;;;;;4828828;29;20235;-90
2021/01/09 04:27:32;;;;;;;0.50;0.50;;;3.20;99.90;;;;;;4844515;29;20220;-91
2021/01/09 04:29:58;;;;;;;0.20;0.20;;;3.30;99.90;;;;;;4829450;29;20223;-91
2021/01/09 04:32:24;;;;;;;0.30;0.30;;;3.30;99.90;;;;;;4845082;29;20208;-91
2021/01/09 04:34:50;;;;;;;1.60;0.50;;;3.10;99.90;;;;;;4859671;29;20224;-90
2021/01/09 04:37:16;;;;;;;0.63;0.40;;;2.90;99.90;;;;;;4813267;29;20219;-90
2021/01/09 04:39:41;;;;;;;0.20;0.20;;;2.90;99.90;;;;;;4841739;29;20243;-91
2021/01/09 04:42:07;;;;;;;4.07;0.40;;;2.90;99.90;;;;;;4828639;29;20235;-91
2021/01/09 04:44:33;;;;;;;1.30;1.30;;;2.90;99.90;;;;;;4862324;29;20273;-90
2021/01/09 04:47:01;;;;;;;0.40;0.40;;;2.90;99.90;;;;;;4826949;29;20338;-91
2021/01/09 04:49:28;;;;;;;0.20;0.20;;;3.00;99.90;;;;;;4846021;29;20232;-91
2021/01/09 04:51:56;;;;;;;4.57;0.40;;;3.00;99.90;;;;;;4845836;29;20232;-91
2021/01/09 04:54:24;;;;;;;0.20;0.20;;;3.00;99.90;;;;;;4845669;29;20224;-90
2021/01/09 04:56:54;;;;;;;0.43;0.43;;;3.10;99.90;;;;;;4861331;29;20196;-92
2021/01/09 04:59:21;;;;;;;0.23;0.23;;;3.10;99.90;;;;;;4845084;29;20203;-90
2021/01/09 05:01:48;;;;;;;0.20;0.20;;;3.10;99.90;;;;;;4828191;29;21040;-92
2021/01/09 05:04:16;;;;;;;0.20;0.20;;;3.10;99.90;;;;;;4845513;29;20212;-90
2021/01/09 05:06:43;;;;;;;0.20;0.20;;;3.10;99.90;;;;;;4843183;29;20224;-90
2021/01/09 05:09:11;;;;;;;0.20;0.20;;;3.10;99.90;;;;;;4812936;29;20241;-89
2021/01/09 05:11:39;;;;;;;0.30;0.30;;;3.10;99.90;;;;;;4841644;29;20195;-90
2021/01/09 05:14:06;;;;;;;0.20;0.20;;;3.10;99.90;;;;;;4861171;29;20192;-90
2021/01/09 05:16:32;;;;;;;0.27;0.27;;;3.10;99.90;;;;;;4844516;29;20228;-90
2021/01/09 05:18:59;;;;;;;0.60;0.60;;;3.10;99.90;;;;;;4861236;29;20269;-90
2021/01/09 05:21:27;;;;;;;0.30;0.30;;;3.20;99.90;;;;;;4843498;29;20224;-91
2021/01/09 05:24:00;;;;;;;0.30;0.30;;;3.10;99.90;;;;;;4840879;29;20252;-91
2021/01/09 05:26:27;;;;;;;0.40;0.40;;;3.00;99.90;;;;;;4830634;29;20197;-91
2021/01/09 05:28:55;;;;;;;1.27;1.17;;;2.90;99.90;;;;;;4843442;29;20235;-92
2021/01/09 05:31:22;;;;;;;0.20;0.20;;;2.90;99.90;;;;;;4860863;29;20313;-90
2021/01/09 05:33:49;;;;;;;0.30;0.30;;;2.90;99.90;;;;;;4860244;29;20220;-90
2021/01/09 05:36:16;;;;;;;0.40;0.40;;;3.00;99.90;;;;;;4841371;29;20755;-92
2021/01/09 05:38:44;;;;;;;0.30;0.30;;;3.00;99.90;;;;;;4838626;29;20188;-90
2021/01/09 05:41:12;;;;;;;0.20;0.20;;;3.10;99.90;;;;;;4840079;29;20323;-90
2021/01/09 05:43:38;;;;;;;2.83;0.40;;;3.10;99.90;;;;;;4851930;29;20226;-90
2021/01/09 05:46:06;;;;;;;0.37;0.37;;;3.10;99.90;;;;;;4840725;29;20240;-90
2021/01/09 05:48:33;;;;;;;3.30;2.33;;;3.20;99.90;;;;;;4822489;29;20296;-90
2021/01/09 05:51:03;;;;;;;5.87;1.07;;;3.20;99.90;;;;;;4855309;29;20231;-90
2021/01/09 05:53:40;;;;;;;0.57;0.53;;;3.30;99.90;;;;;;4840188;29;20196;-90
2021/01/09 05:56:06;;;;;;;0.17;0.17;;;3.30;99.90;;;;;;4840597;29;20265;-91
2021/01/09 05:58:34;;;;;;;0.20;0.20;;;3.40;99.90;;;;;;4825956;29;20559;-92
2021/01/09 06:01:08;;;;;;;0.30;0.30;;;3.40;99.90;;;;;;4827432;29;20223;-92
2021/01/09 06:03:42;;;;;;;0.20;0.20;;;3.40;99.90;;;;;;4841309;29;20227;-91
2021/01/09 06:06:34;;;;;;;0.53;0.53;;;3.40;99.90;;;;;;4843781;29;20219;-91
2021/01/09 06:09:05;;;;;;;0.40;0.40;;;3.40;99.90;;;;;;4846560;29;20245;-91
2021/01/09 06:11:42;;;;;;;0.30;0.30;;;3.10;99.90;;;;;;4845618;29;20199;-92
2021/01/09 06:14:11;;;;;;;11.23;0.60;;;3.00;99.90;;;;;;4842391;29;20302;-92
2021/01/09 06:16:39;;;;;;;0.33;0.33;;;2.90;99.90;;;;;;4842380;29;20237;-92
2021/01/09 06:19:06;;;;;;;0.30;0.30;;;2.90;99.90;;;;;;4828003;29;20228;-91
2021/01/09 06:21:34;;;;;;;0.30;0.30;;;2.90;99.90;;;;;;4826034;29;20245;-89
2021/01/09 06:24:02;;;;;;;0.30;0.30;;;2.80;99.90;;;;;;4843868;29;20707;-91
2021/01/09 06:26:30;;;;;;;0.53;0.53;;;2.80;99.90;;;;;;4860370;29;20193;-91
2021/01/09 06:28:59;;;;;;;1.13;0.47;;;2.80;99.90;;;;;;4840986;29;20236;-91
2021/01/09 06:31:27;;;;;;;0.80;0.50;;;2.80;99.90;;;;;;4841432;29;20225;-93
2021/01/09 06:34:00;;;;;;;2.97;1.07;;;2.80;99.90;;;;;;4842324;29;20307;-92
2021/01/09 06:36:26;;;;;;;0.20;0.20;;;2.70;99.90;;;;;;4843613;29;20234;-91
2021/01/09 06:38:54;;;;;;;0.30;0.30;;;2.80;99.90;;;;;;4850119;29;21064;-93
2021/01/09 06:41:23;;;;;;;0.40;0.40;;;2.60;99.90;;;;;;4860409;29;20790;-93
2021/01/09 06:43:53;;;;;;;0.30;0.30;;;2.40;99.90;;;;;;4840776;29;20896;-93
2021/01/09 06:46:37;;;;;;;0.30;0.30;;;2.20;99.90;;;;;;4840368;29;20246;-87
2021/01/09 06:49:03;;;;;;;0.20;0.20;;;2.10;99.90;;;;;;4854234;29;20236;-91
2021/01/09 06:51:32;;;;;;;0.30;0.30;;;2.00;99.90;;;;;;4826551;29;20220;-92
2021/01/09 06:54:23;;;;;;;0.63;0.63;;;2.00;99.90;;;;;;4842678;29;20318;-91
2021/01/09 06:57:10;;;;;;;4.10;3.80;;;2.00;99.90;;;;;;4825218;29;20729;-93
2021/01/09 06:59:38;;;;;;;2.20;2.10;;;2.10;99.90;;;;;;4861165;29;20223;-89
2021/01/09 07:02:13;;;;;;;0.30;0.30;;;2.20;99.90;;;;;;4843646;29;20203;-90
2021/01/09 07:04:57;;;;;;;0.40;0.30;;;2.40;99.90;;;;;;4834269;29;20232;-93
2021/01/09 07:07:52;;;;;;;0.30;0.30;;;2.60;99.90;;;;;;4858340;29;20616;-89
2021/01/09 07:10:23;;;;;;;0.87;0.47;;;2.60;99.90;;;;;;4842839;29;20619;-86
2021/01/09 07:12:57;;;;;;;2.77;0.77;;;2.70;99.90;;;;;;4857747;29;20277;-89
2021/01/09 07:15:25;;;;;;;0.60;0.60;;;2.70;99.90;;;;;;4856685;29;20219;-93
2021/01/09 07:17:58;;;;;;;0.53;0.53;;;2.80;99.90;;;;;;4842021;29;20202;-85
2021/01/09 07:20:38;;;;;;;4.70;1.13;;;2.70;99.90;;;;;;4858657;29;20199;-92
2021/01/09 07:23:09;;;;;;;0.63;0.63;;;2.70;99.90;;;;;;4841555;29;20314;-92
2021/01/09 07:25:40;;;;;;;0.20;0.20;;;2.70;99.90;;;;;;4842908;29;20649;-93
2021/01/09 07:28:13;;;;;;;0.60;0.60;;;2.70;99.90;;;;;;4860617;29;20247;-91
2021/01/09 07:30:40;;;;;;;0.20;0.20;;;2.70;99.90;;;;;;4843186;29;20228;-92
2021/01/09 07:33:14;;;;;;;0.60;0.60;;;2.70;99.90;;;;;;4831946;29;20228;-92
2021/01/09 07:35:44;;;;;;;0.43;0.43;;;2.70;99.90;;;;;;4844078;29;20219;-92
2021/01/09 07:38:12;;;;;;;3.80;0.90;;;2.60;99.90;;;;;;4834550;29;20498;-92
2021/01/09 07:40:55;;;;;;;0.90;0.90;;;2.60;99.90;;;;;;4849516;29;20289;-95
2021/01/09 07:43:44;;;;;;;0.80;0.80;;;2.50;99.90;;;;;;4850040;29;20231;-94
2021/01/09 07:46:28;;;;;;;0.90;0.90;;;2.40;99.90;;;;;;4847991;29;20230;-95
2021/01/09 07:48:56;;;;;;;1.17;0.63;;;2.30;99.90;;;;;;4858539;29;20286;-92
2021/01/09 07:51:51;;;;;;;0.90;0.90;;;2.30;99.90;;;;;;4824276;29;20232;-88
2021/01/09 07:54:46;;;;;;;1.10;1.10;;;2.30;99.90;;;;;;4860200;29;20590;-90
2021/01/09 07:57:18;;;;;;;1.13;0.87;;;2.20;99.90;;;;;;4848382;29;20260;-90
2021/01/09 08:00:06;;;;;;;0.50;0.50;;;2.20;99.90;;;;;;4862454;29;20224;-91
2021/01/09 08:02:34;;;;;;;0.40;0.40;;;2.30;99.90;;;;;;4849325;29;20674;-91
2021/01/09 08:05:20;;;;;;;1.40;0.90;;;2.40;99.90;;;;;;4860744;29;20226;-93
2021/01/09 08:07:52;;;;;;;0.20;0.20;;;2.40;99.90;;;;;;4846293;29;20320;-92
2021/01/09 08:10:27;;;;;;;5.20;0.90;;;2.70;99.90;;;;;;4844621;29;20624;-95
2021/01/09 08:12:55;;;;;;;0.50;0.50;;;2.80;99.90;;;;;;4844886;29;20243;-91
2021/01/09 08:15:21;;;;;;;0.60;0.60;;;2.90;99.90;;;;;;4844099;29;20310;-90
2021/01/09 08:17:47;;;;;;;0.30;0.30;;;2.90;99.90;;;;;;4844174;29;20318;-94
2021/01/09 08:20:14;;;;;;;0.70;0.70;;;2.90;99.90;;;;;;4828768;29;20199;-92
2021/01/09 08:22:54;;;;;;;0.50;0.50;;;2.90;99.90;;;;;;4845518;29;20228;-90
2021/01/09 08:25:22;;;;;;;0.60;0.60;;;2.90;99.90;;;;;;4866736;29;20221;-94
2021/01/09 08:27:52;;;;;;;0.90;0.90;;;2.90;99.90;;;;;;4854746;29;20319;-94
2021/01/09 08:30:21;;;;;;;1.13;1.00;;;3.00;99.90;;;;;;4840748;29;20266;-93
2021/01/09 08:33:04;;;;;;;1.17;1.07;;;3.00;99.90;;;;;;4861493;29;20180;-96
2021/01/09 08:35:30;;;;;;;2.10;1.17;;;3.00;99.90;;;;;;4855858;29;20174;-94
2021/01/09 08:37:57;;;;;;;0.60;0.53;;;3.00;99.90;;;;;;4853687;29;20216;-94
2021/01/09 08:40:26;;;;;;;1.37;1.27;;;3.00;99.90;;;;;;4840947;29;20295;-93
2021/01/09 08:42:55;;;;;;;0.80;0.77;;;3.00;99.90;;;;;;4841375;29;20228;-93
2021/01/09 08:45:43;;;;;;;0.67;0.67;;;3.10;99.90;;;;;;4854953;29;20192;-93
2021/01/09 08:48:12;;;;;;;1.33;1.23;;;3.30;99.90;;;;;;4853178;29;20225;-95
2021/01/09 08:51:13;;;;;;;1.17;0.97;;;3.30;99.90;;;;;;4855263;29;20188;-95
2021/01/09 08:53:56;;;;;;;1.30;0.50;;;3.00;99.90;;;;;;4834731;29;20185;-95
2021/01/09 08:56:30;;;;;;;2.63;2.23;;;2.90;99.90;;;;;;4855991;29;20268;-96
2021/01/09 08:59:31;;;;;;;40.17;16.00;;;3.00;99.90;;;;;;4858875;29;20192;-96
2021/01/09 09:02:23;;;;;;;5.47;3.43;;;3.10;99.90;;;;;;4809010;29;20275;-96
2021/01/09 09:04:58;;;;;;;2.23;2.07;;;3.10;99.90;;;;;;4842820;29;20218;-94
2021/01/09 09:07:24;;;;;;;4.07;3.63;;;3.10;99.90;;;;;;4851906;29;20327;-95
2021/01/09 09:09:52;;;;;;;1.67;1.57;;;3.10;99.90;;;;;;4864973;29;20241;-96
2021/01/09 09:12:24;;;;;;;21.03;11.93;;;3.20;99.90;;;;;;4847606;29;20224;-92
2021/01/09 09:14:57;;;;;;;2.30;2.13;;;3.30;99.90;;;;;;4850567;29;20271;-93
2021/01/09 09:17:26;;;;;;;2.43;2.23;;;3.30;99.90;;;;;;4854545;29;20252;-93
2021/01/09 09:19:57;;;;;;;4.60;4.30;;;3.40;99.90;;;;;;4868278;29;20224;-94
2021/01/09 09:22:37;;;;;;;1.20;1.10;;;3.60;99.90;;;;;;4849173;29;20240;-93
2021/01/09 09:25:03;;;;;;;1.10;1.10;;;3.80;99.90;;;;;;4848361;29;20312;-93
2021/01/09 09:27:31;;;;;;;1.50;0.77;;;3.80;99.90;;;;;;4853434;29;20230;-94
2021/01/09 09:30:14;;;;;;;1.20;1.20;;;3.80;99.90;;;;;;4869985;29;20207;-94
2021/01/09 09:32:47;;;;;;;1.27;1.17;;;3.50;99.90;;;;;;4848104;29;20184;-93
2021/01/09 09:35:24;;;;;;;8.50;1.13;;;3.30;99.90;;;;;;4854583;29;20625;-93
2021/01/09 09:37:51;;;;;;;5.50;1.67;;;3.10;99.90;;;;;;4851573;29;20221;-93
2021/01/09 09:40:31;;;;;;;0.80;0.80;;;3.10;99.90;;;;;;4851311;29;20803;-93
2021/01/09 09:43:13;;;;;;;0.80;0.80;;;3.10;99.90;;;;;;4857774;29;20384;-94
2021/01/09 09:46:03;;;;;;;1.13;1.03;;;3.10;99.90;;;;;;4868527;29;20724;-94
2021/01/09 09:48:34;;;;;;;0.70;0.67;;;3.10;99.90;;;;;;4871560;29;20225;-95
2021/01/09 09:51:08;;;;;;;0.80;0.80;;;3.20;99.90;;;;;;4862203;29;21488;-91
2021/01/09 09:53:36;;;;;;;0.67;0.67;;;3.40;99.90;;;;;;4846055;29;20201;-92
2021/01/09 09:56:17;;;;;;;1.00;1.00;;;3.60;99.90;;;;;;4849119;29;20250;-93
2021/01/09 09:58:43;;;;;;;1.53;1.00;;;3.70;99.90;;;;;;4838144;29;20244;-93
2021/01/09 10:01:20;;;;;;;1.80;1.27;;;3.80;99.90;;;;;;4849276;29;20228;-93
2021/01/09 10:03:48;;;;;;;1.37;1.27;;;4.00;99.90;;;;;;4862756;29;20228;-92
2021/01/09 10:06:15;;;;;;;1.10;1.10;;;4.00;99.90;;;;;;4844973;29;20228;-91
2021/01/09 10:08:41;;;;;;;1.33;1.17;;;4.20;99.90;;;;;;4858206;29;20242;-91
2021/01/09 10:11:08;;;;;;;1.57;1.47;;;4.30;99.90;;;;;;4844589;29;20192;-90
2021/01/09 10:13:34;;;;;;;1.00;1.00;;;4.40;99.90;;;;;;4841575;29;20231;-89
2021/01/09 10:16:00;;;;;;;4.00;2.80;;;4.60;99.90;;;;;;4859440;29;20255;-89
2021/01/09 10:18:27;;;;;;;2.20;1.83;;;4.70;99.90;;;;;;4823914;29;20228;-89
2021/01/09 10:20:53;;;;;;;2.70;2.37;;;4.70;99.90;;;;;;4825264;29;20184;-90
2021/01/09 10:23:19;;;;;;;2.43;1.53;;;4.60;99.90;;;;;;4843205;29;20222;-90
2021/01/09 10:25:45;;;;;;;1.53;1.43;;;4.70;99.90;;;;;;4856471;29;20220;-90
2021/01/09 10:28:11;;;;;;;2.20;1.37;;;4.80;99.90;;;;;;4839606;29;20295;-90
2021/01/09 10:30:37;;;;;;;5.23;2.70;;;4.80;99.90;;;;;;4808874;29;20228;-91
2021/01/09 10:33:03;;;;;;;3.73;2.67;;;4.90;99.90;;;;;;4854887;29;20256;-90
2021/01/09 10:35:29;;;;;;;3.90;1.97;;;5.00;99.90;;;;;;4859543;29;20315;-91
2021/01/09 10:37:55;;;;;;;2.73;1.97;;;5.10;99.90;;;;;;4841404;29;20243;-91
2021/01/09 10:40:21;;;;;;;3.27;2.23;;;5.40;99.90;;;;;;4855576;29;20244;-90
2021/01/09 10:42:50;;;;;;;2.07;1.13;;;5.50;99.90;;;;;;4843728;29;20229;-93
2021/01/09 10:45:16;;;;;;;3.63;2.13;;;5.50;99.90;;;;;;4831099;29;20227;-90
2021/01/09 10:47:44;;;;;;;27.83;17.53;;;5.60;99.90;;;;;;4837912;29;20197;-91
2021/01/09 10:50:10;;;;;;;11.63;5.17;;;5.70;99.90;;;;;;4858373;29;20459;-90
2021/01/09 10:52:37;;;;;;;4.23;3.67;;;5.80;99.90;;;;;;4842753;29;20236;-92
2021/01/09 10:55:05;;;;;;;5.10;4.67;;;5.80;99.90;;;;;;4828606;29;20276;-90
2021/01/09 10:57:32;;;;;;;3.33;2.80;;;5.90;99.90;;;;;;4841946;29;20224;-92
2021/01/09 10:59:58;;;;;;;1.43;1.17;;;5.80;99.90;;;;;;4854442;29;20252;-93
2021/01/09 11:02:24;;;;;;;3.83;1.83;;;5.80;99.90;;;;;;4855119;29;20199;-94
2021/01/09 11:04:50;;;;;;;3.93;1.17;;;5.80;99.90;;;;;;4829075;29;20220;-90
2021/01/09 11:07:16;;;;;;;5.43;1.27;;;5.80;99.90;;;;;;4836652;29;20219;-90
2021/01/09 11:09:42;;;;;;;1.63;0.93;;;5.50;99.90;;;;;;4823012;29;20232;-92
2021/01/09 11:12:08;;;;;;;1.13;1.00;;;5.00;99.90;;;;;;4829362;29;20284;-93
2021/01/09 11:14:33;;;;;;;0.67;0.67;;;4.60;99.90;;;;;;4844392;29;20244;-90
2021/01/09 11:16:59;;;;;;;1.23;1.13;;;4.30;99.90;;;;;;4824288;29;20222;-93
2021/01/09 11:19:26;;;;;;;1.30;1.20;;;4.10;99.90;;;;;;4854328;29;20224;-92
2021/01/09 11:22:00;;;;;;;1.10;1.10;;;4.20;99.90;;;;;;4839465;29;20216;-91
2021/01/09 11:24:33;;;;;;;0.77;0.77;;;4.30;99.90;;;;;;4846523;29;20307;-93
2021/01/09 11:27:05;;;;;;;2.57;1.50;;;4.50;99.90;;;;;;4832655;29;20301;-92
2021/01/09 11:29:34;;;;;;;0.83;0.83;;;4.60;99.90;;;;;;4856534;29;20219;-91
2021/01/09 11:32:03;;;;;;;2.20;0.93;;;4.50;99.90;;;;;;4842867;29;20246;-90
2021/01/09 11:34:30;;;;;;;2.13;1.93;;;4.60;99.90;;;;;;4857852;29;20224;-91
2021/01/09 11:36:57;;;;;;;1.10;1.00;;;5.00;99.90;;;;;;4859603;29;20216;-90
2021/01/09 11:39:23;;;;;;;3.63;1.93;;;5.40;99.90;;;;;;4841103;29;20343;-91
2021/01/09 11:41:49;;;;;;;1.17;1.07;;;5.70;99.90;;;;;;4854785;29;20200;-93
2021/01/09 11:44:15;;;;;;;1.07;0.97;;;5.70;99.90;;;;;;4827270;29;20196;-93
2021/01/09 11:46:41;;;;;;;1.30;1.13;;;5.70;99.90;;;;;;4826406;29;20319;-91
2021/01/09 11:49:07;;;;;;;1.00;1.00;;;5.90;99.90;;;;;;4836871;29;20248;-93
2021/01/09 11:51:33;;;;;;;1.93;1.27;;;6.10;99.90;;;;;;4825530;29;20684;-92
2021/01/09 11:53:59;;;;;;;1.57;1.23;;;6.20;99.90;;;;;;4858853;29;20220;-93
2021/01/09 11:56:24;;;;;;;1.90;1.00;;;6.40;99.90;;;;;;4858047;29;20196;-91
2021/01/09 11:58:50;;;;;;;1.23;1.13;;;6.60;99.90;;;;;;4856906;29;20236;-91
2021/01/09 12:01:16;;;;;;;19.00;1.77;;;6.70;99.90;;;;;;4833413;29;20224;-93
2021/01/09 12:03:42;;;;;;;2.93;0.40;;;6.70;99.90;;;;;;4860541;29;20270;-91
2021/01/09 12:06:08;;;;;;;2.00;1.63;;;6.30;99.90;;;;;;4839275;29;20851;-91
2021/01/09 12:08:34;;;;;;;0.20;0.20;;;6.00;99.90;;;;;;4843606;29;20280;-93
2021/01/09 12:11:00;;;;;;;1.53;0.90;;;5.80;99.90;;;;;;4841125;29;20230;-92
2021/01/09 12:13:26;;;;;;;4.20;0.70;;;5.70;99.90;;;;;;4857241;29;20212;-91
2021/01/09 12:15:52;;;;;;;0.47;0.47;;;5.80;99.90;;;;;;4826280;29;20234;-90
2021/01/09 12:18:20;;;;;;;0.30;0.20;;;5.70;99.90;;;;;;4840699;29;20297;-92
2021/01/09 12:20:49;;;;;;;0.30;0.20;;;5.50;99.90;;;;;;4841007;29;20755;-93
2021/01/09 12:23:15;;;;;;;0.20;0.20;;;5.50;99.90;;;;;;4857715;29;20184;-92
2021/01/09 12:25:41;;;;;;;0.30;0.30;;;5.50;99.90;;;;;;4845309;29;20228;-91
2021/01/09 12:28:09;;;;;;;0.40;0.40;;;5.60;99.90;;;;;;4844754;29;20330;-93
2021/01/09 12:30:35;;;;;;;0.20;0.20;;;5.70;99.90;;;;;;4836852;29;21135;-91
2021/01/09 12:33:02;;;;;;;1.67;1.53;;;5.80;99.90;;;;;;4830431;29;20212;-91
2021/01/09 12:35:27;;;;;;;0.20;0.20;;;5.90;99.90;;;;;;4830301;29;20199;-91
2021/01/09 12:37:56;;;;;;;0.20;0.20;;;5.90;99.90;;;;;;4844404;29;20228;-92
2021/01/09 12:40:22;;;;;;;0.30;0.30;;;5.80;99.90;;;;;;4844246;29;20232;-92
2021/01/09 12:42:48;;;;;;;0.50;0.50;;;5.80;99.90;;;;;;4828052;29;20224;-91
2021/01/09 12:45:14;;;;;;;0.20;0.20;;;5.70;99.90;;;;;;4830211;29;20300;-93
2021/01/09 12:47:44;;;;;;;0.50;0.50;;;5.70;99.90;;;;;;4827174;29;20188;-92
2021/01/09 12:50:10;;;;;;;0.20;0.20;;;5.60;99.90;;;;;;4848069;29;20193;-90
2021/01/09 12:52:36;;;;;;;0.27;0.27;;;5.50;99.90;;;;;;4859629;29;20288;-91
2021/01/09 12:55:02;;;;;;;1.00;0.40;;;5.40;99.90;;;;;;4828179;29;20220;-92
2021/01/09 12:57:27;;;;;;;0.30;0.30;;;5.30;99.90;;;;;;4845477;29;20224;-91
2021/01/09 12:59:53;;;;;;;0.30;0.30;;;5.30;99.90;;;;;;4829404;29;20223;-93
2021/01/09 13:02:19;;;;;;;0.10;0.10;;;5.30;99.90;;;;;;4845144;29;20200;-93
2021/01/09 13:04:45;;;;;;;0.30;0.30;;;5.50;99.90;;;;;;4812846;29;20467;-90
2021/01/09 13:07:10;;;;;;;1.33;1.23;;;5.60;99.90;;;;;;4830062;29;20981;-91